createdAt,value
2019-04-06T00:02:03.023Z,79.20
2019-04-06T00:04:35.139Z,79.00
2019-04-06T00:07:06.661Z,79.00
2019-04-06T00:09:39.052Z,78.90
2019-04-06T00:12:10.941Z,79.10
2019-04-06T00:14:42.879Z,79.60
2019-04-06T00:17:16.997Z,80.40
2019-04-06T00:19:48.511Z,79.60
2019-04-06T00:22:20.562Z,79.30
2019-04-06T00:24:52.532Z,79.00
2019-04-06T00:27:24.679Z,78.80
2019-04-06T00:29:56.210Z,79.80
2019-04-06T00:32:30.123Z,79.40
2019-04-06T00:35:02.619Z,79.00
2019-04-06T00:37:33.867Z,78.80
2019-04-06T00:40:07.949Z,79.50
2019-04-06T00:42:41.768Z,78.80
2019-04-06T00:45:14.060Z,78.50
2019-04-06T00:47:45.467Z,78.20
2019-04-06T00:50:19.406Z,78.00
2019-04-06T00:52:52.009Z,77.70
2019-04-06T00:55:23.936Z,77.40
2019-04-06T00:57:56.736Z,77.40
2019-04-06T01:00:29.425Z,77.50
2019-04-06T01:03:03.570Z,77.40
2019-04-06T01:05:35.981Z,77.20
2019-04-06T01:08:10.253Z,77.20
2019-04-06T01:10:44.692Z,76.90
2019-04-06T01:13:17.606Z,76.30
2019-04-06T01:15:49.785Z,76.00
2019-04-06T01:18:21.098Z,75.80
2019-04-06T01:20:53.358Z,75.60
2019-04-06T01:23:27.711Z,75.50
2019-04-06T01:26:06.929Z,75.60
2019-04-06T01:28:33.849Z,75.80
2019-04-06T01:31:07.045Z,75.60
2019-04-06T01:33:38.400Z,75.80
2019-04-06T01:36:10.785Z,75.90
2019-04-06T01:38:45.004Z,75.70
2019-04-06T01:41:16.319Z,75.60
2019-04-06T01:43:50.025Z,75.00
2019-04-06T01:46:22.322Z,75.00
2019-04-06T01:48:56.294Z,74.80
2019-04-06T01:51:27.771Z,74.40
2019-04-06T01:54:00.048Z,73.90
2019-04-06T01:56:32.877Z,73.50
2019-04-06T01:59:05.115Z,73.40
2019-04-06T02:01:38.653Z,73.20
2019-04-06T02:04:12.133Z,72.90
2019-04-06T02:06:43.270Z,73.50
2019-04-06T02:09:14.578Z,72.30
2019-04-06T02:11:48.072Z,70.40
2019-04-06T02:14:20.548Z,68.90
2019-04-06T02:16:54.836Z,69.00
2019-04-06T02:19:29.309Z,69.00
2019-04-06T02:22:01.488Z,68.50
2019-04-06T02:24:33.818Z,67.20
2019-04-06T02:27:06.990Z,67.60
2019-04-06T02:29:38.177Z,67.10
2019-04-06T02:32:11.040Z,66.20
2019-04-06T02:34:49.532Z,66.80
2019-04-06T02:37:22.987Z,65.20
2019-04-06T02:39:58.684Z,63.70
2019-04-06T02:42:32.370Z,64.00
2019-04-06T02:45:04.829Z,64.00
2019-04-06T02:47:37.454Z,63.20
2019-04-06T02:50:10.826Z,64.10
2019-04-06T02:52:44.785Z,61.20
2019-04-06T02:55:19.993Z,61.80
2019-04-06T02:57:52.465Z,62.10
2019-04-06T03:00:42.285Z,62.30
2019-04-06T03:03:14.462Z,61.40
2019-04-06T03:05:48.449Z,61.40
2019-04-06T03:08:24.372Z,60.40
2019-04-06T03:10:56.497Z,61.00
2019-04-06T03:13:32.022Z,59.30
2019-04-06T03:16:03.111Z,58.80
2019-04-06T03:18:35.107Z,59.30
2019-04-06T03:21:07.608Z,59.50
2019-04-06T03:23:50.842Z,59.80
2019-04-06T03:26:14.029Z,59.70
2019-04-06T03:28:49.498Z,59.30
2019-04-06T03:31:25.179Z,58.70
2019-04-06T03:33:54.644Z,58.50
2019-04-06T03:39:14.637Z,58.40
2019-04-06T03:42:04.274Z,56.80
2019-04-06T03:44:35.757Z,56.20
2019-04-06T03:47:16.632Z,56.60
2019-04-06T03:49:49.101Z,57.40
2019-04-06T03:52:21.161Z,56.90
2019-04-06T03:54:53.335Z,57.00
2019-04-06T03:57:27.549Z,55.60
2019-04-06T03:59:59.415Z,54.40
2019-04-06T04:02:31.968Z,55.10
2019-04-06T04:05:04.722Z,55.40
2019-04-06T04:07:37.589Z,55.00
2019-04-06T04:10:11.608Z,53.90
2019-04-06T04:12:46.405Z,53.80
2019-04-06T04:15:18.187Z,53.70
2019-04-06T04:17:51.086Z,54.50
2019-04-06T04:20:25.576Z,53.20
2019-04-06T04:22:58.681Z,54.00
2019-04-06T04:25:31.509Z,53.10
2019-04-06T04:28:05.723Z,51.70
2019-04-06T04:30:37.538Z,51.20
2019-04-06T04:33:13.113Z,52.60
2019-04-06T04:35:49.157Z,52.30
2019-04-06T04:38:23.722Z,51.40
2019-04-06T04:40:58.760Z,51.00
2019-04-06T04:43:33.100Z,51.10
2019-04-06T04:46:04.701Z,52.20
2019-04-06T04:48:35.989Z,52.50
2019-04-06T04:51:10.488Z,51.30
2019-04-06T04:53:42.104Z,49.90
2019-04-06T04:56:16.861Z,51.20
2019-04-06T04:58:49.487Z,49.90
2019-04-06T05:01:20.882Z,50.00
2019-04-06T05:03:52.629Z,51.00
2019-04-06T05:06:25.480Z,48.40
2019-04-06T05:09:00.728Z,47.90
2019-04-06T05:11:33.429Z,48.00
2019-04-06T05:14:44.638Z,47.70
2019-04-06T05:17:17.513Z,47.60
2019-04-06T05:19:50.003Z,48.90
2019-04-06T05:22:25.873Z,48.80
2019-04-06T05:24:58.812Z,49.60
2019-04-06T05:27:31.808Z,49.60
2019-04-06T05:30:10.478Z,48.80
2019-04-06T05:32:43.351Z,47.10
2019-04-06T05:35:17.442Z,47.40
2019-04-06T05:37:50.209Z,48.00
2019-04-06T05:40:24.600Z,48.60
2019-04-06T05:42:56.472Z,45.90
2019-04-06T05:45:28.859Z,46.90
2019-04-06T05:48:01.545Z,46.50
2019-04-06T05:50:34.184Z,47.80
2019-04-06T05:53:08.237Z,47.40
2019-04-06T05:55:41.109Z,48.60
2019-04-06T05:58:15.617Z,45.30
2019-04-06T06:00:47.375Z,45.10
2019-04-06T06:03:19.222Z,46.00
2019-04-06T06:05:50.824Z,43.80
2019-04-06T06:08:23.355Z,45.30
2019-04-06T06:10:56.802Z,45.10
2019-04-06T06:13:29.512Z,46.40
2019-04-06T06:16:02.079Z,46.50
2019-04-06T06:18:36.782Z,44.20
2019-04-06T06:21:08.228Z,45.00
2019-04-06T06:23:41.192Z,42.40
2019-04-06T06:26:13.990Z,42.90
2019-04-06T06:28:47.122Z,42.40
2019-04-06T06:31:20.808Z,42.30
2019-04-06T06:33:53.638Z,42.00
2019-04-06T06:36:27.896Z,43.90
2019-04-06T06:39:00.651Z,43.40
2019-04-06T06:41:32.197Z,44.10
2019-04-06T06:44:06.439Z,45.50
2019-04-06T06:46:39.017Z,45.00
2019-04-06T06:49:12.685Z,44.50
2019-04-06T06:51:47.355Z,45.40
2019-04-06T06:54:18.927Z,44.90
2019-04-06T06:56:51.554Z,43.20
2019-04-06T06:59:23.480Z,42.40
2019-04-06T07:01:58.072Z,42.90
2019-04-06T07:04:32.401Z,44.40
2019-04-06T07:07:05.320Z,44.90
2019-04-06T07:09:38.222Z,45.30
2019-04-06T07:12:10.968Z,44.90
2019-04-06T07:14:43.813Z,44.70
2019-04-06T07:17:16.686Z,41.90
2019-04-06T07:19:49.406Z,43.60
2019-04-06T07:22:23.761Z,41.40
2019-04-06T07:24:58.164Z,42.90
2019-04-06T07:27:29.712Z,42.40
2019-04-06T07:30:01.409Z,42.20
2019-04-06T07:32:32.984Z,41.90
2019-04-06T07:35:05.593Z,40.10
2019-04-06T07:37:37.615Z,37.60
2019-04-06T07:40:10.977Z,37.60
2019-04-06T07:42:42.743Z,37.70
2019-04-06T07:45:15.567Z,39.00
2019-04-06T07:47:48.367Z,39.10
2019-04-06T07:50:20.019Z,40.40
2019-04-06T07:52:52.145Z,40.90
2019-04-06T07:55:26.841Z,41.30
2019-04-06T07:57:59.544Z,41.30
2019-04-06T08:00:33.882Z,37.80
2019-04-06T08:03:07.162Z,39.10
2019-04-06T08:05:39.893Z,40.70
2019-04-06T08:08:12.564Z,40.50
2019-04-06T08:10:46.970Z,41.30
2019-04-06T08:13:21.584Z,40.20
2019-04-06T08:15:54.354Z,39.00
2019-04-06T08:18:29.226Z,40.60
2019-04-06T08:21:03.481Z,40.30
2019-04-06T08:23:50.123Z,41.10
2019-04-06T08:26:25.174Z,42.00
2019-04-06T08:29:02.235Z,42.40
2019-04-06T08:31:32.837Z,39.70
2019-04-06T08:34:05.681Z,40.90
2019-04-06T08:36:40.717Z,40.30
2019-04-06T08:39:13.635Z,39.40
2019-04-06T08:41:48.439Z,39.80
2019-04-06T08:44:20.245Z,40.40
2019-04-06T08:46:53.104Z,40.10
2019-04-06T08:49:25.705Z,40.70
2019-04-06T08:51:58.341Z,40.90
2019-04-06T08:54:32.013Z,41.70
2019-04-06T08:57:11.172Z,40.50
2019-04-06T08:59:43.660Z,41.10
2019-04-06T09:02:15.400Z,41.00
2019-04-06T09:04:47.363Z,41.80
2019-04-06T09:07:23.600Z,42.90
2019-04-06T09:09:57.672Z,43.30
2019-04-06T09:12:29.130Z,42.80
2019-04-06T09:15:03.594Z,42.40
2019-04-06T09:17:36.361Z,42.20
2019-04-06T09:20:29.192Z,43.10
2019-04-06T09:23:04.184Z,43.70
2019-04-06T09:25:34.602Z,42.70
2019-04-06T09:28:11.066Z,42.60
2019-04-06T09:30:42.688Z,43.10
2019-04-06T09:33:14.090Z,41.70
2019-04-06T09:35:46.974Z,43.00
2019-04-06T09:38:24.329Z,44.10
2019-04-06T09:40:56.762Z,44.20
2019-04-06T09:43:28.666Z,44.40
2019-04-06T09:46:22.188Z,43.70
2019-04-06T09:48:57.427Z,44.80
2019-04-06T09:51:31.483Z,44.60
2019-04-06T09:54:21.907Z,43.70
2019-04-06T09:56:59.314Z,44.40
2019-04-06T09:59:36.978Z,44.90
2019-04-06T10:02:12.433Z,45.20
2019-04-06T10:05:04.331Z,44.70
2019-04-06T10:07:55.877Z,44.80
2019-04-06T10:10:49.533Z,44.20
2019-04-06T10:13:25.395Z,44.80
2019-04-06T10:15:59.413Z,45.00
2019-04-06T10:18:51.098Z,45.20
2019-04-06T10:21:30.082Z,45.00
2019-04-06T10:24:23.049Z,45.10
2019-04-06T10:26:57.017Z,45.50
2019-04-06T10:29:48.334Z,45.70
2019-04-06T10:32:30.178Z,46.10
2019-04-06T10:35:07.139Z,46.10
2019-04-06T10:37:45.335Z,46.10
2019-04-06T10:40:36.333Z,46.90
2019-04-06T10:43:11.148Z,47.30
2019-04-06T10:45:45.405Z,47.70
2019-04-06T10:48:22.754Z,48.10
2019-04-06T10:50:59.749Z,48.40
2019-04-06T10:53:36.795Z,48.20
2019-04-06T10:56:27.002Z,48.70
2019-04-06T10:59:18.204Z,49.20
2019-04-06T11:01:55.416Z,49.50
2019-04-06T11:04:34.004Z,49.30
2019-04-06T11:07:23.575Z,49.90
2019-04-06T11:10:01.625Z,49.40
2019-04-06T11:12:37.064Z,49.80
2019-04-06T11:15:27.122Z,50.90
2019-04-06T11:18:04.282Z,51.50
2019-04-06T11:20:44.802Z,51.00
2019-04-06T11:23:35.608Z,51.20
2019-04-06T11:26:25.026Z,52.10
2019-04-06T11:28:59.072Z,52.30
2019-04-06T11:31:49.705Z,52.60
2019-04-06T11:34:25.657Z,52.50
2019-04-06T11:37:01.729Z,52.90
2019-04-06T11:39:52.597Z,53.40
2019-04-06T11:42:43.224Z,53.40
2019-04-06T11:45:24.098Z,53.70
2019-04-06T11:48:13.393Z,54.00
2019-04-06T11:50:47.659Z,54.20
2019-04-06T11:53:25.135Z,54.00
2019-04-06T11:56:15.669Z,53.90
2019-04-06T11:58:51.354Z,54.30
2019-04-06T12:01:45.443Z,54.30
2019-04-06T12:04:25.176Z,54.50
2019-04-06T12:07:14.307Z,54.20
2019-04-06T12:10:03.546Z,54.20
2019-04-06T12:12:43.175Z,54.30
2019-04-06T12:15:33.678Z,55.60
2019-04-06T12:18:05.948Z,55.60
2019-04-06T12:20:41.092Z,55.50
2019-04-06T12:23:18.104Z,55.80
2019-04-06T12:25:54.980Z,55.80
2019-04-06T12:28:47.598Z,55.70
2019-04-06T12:31:37.726Z,56.10
2019-04-06T12:34:20.033Z,56.00
2019-04-06T12:36:54.097Z,56.10
2019-04-06T12:39:31.924Z,56.40
2019-04-06T12:42:21.640Z,56.80
2019-04-06T12:44:57.651Z,56.40
2019-04-06T12:47:33.223Z,56.30
2019-04-06T12:50:11.971Z,57.10
2019-04-06T12:53:01.540Z,57.20
2019-04-06T12:55:44.207Z,57.70
2019-04-06T12:58:33.956Z,57.70
2019-04-06T13:01:15.784Z,58.00
2019-04-06T13:03:52.172Z,58.20
2019-04-06T13:06:26.359Z,58.20
2019-04-06T13:09:04.770Z,58.40
2019-04-06T13:11:39.097Z,58.20
2019-04-06T13:14:13.130Z,58.40
2019-04-06T13:16:48.599Z,58.40
2019-04-06T13:19:39.341Z,58.80
2019-04-06T13:22:29.935Z,59.00
2019-04-06T13:25:07.307Z,58.90
2019-04-06T13:27:39.739Z,59.10
2019-04-06T13:30:21.066Z,59.10
2019-04-06T13:32:52.432Z,59.70
2019-04-06T13:35:26.728Z,59.70
2019-04-06T13:38:01.918Z,59.40
2019-04-06T13:40:35.354Z,58.70
2019-04-06T13:43:12.471Z,58.50
2019-04-06T13:46:01.845Z,58.60
2019-04-06T13:48:39.954Z,58.60
2019-04-06T13:51:31.596Z,60.30
2019-04-06T13:54:22.317Z,60.30
2019-04-06T13:57:00.506Z,60.90
2019-04-06T13:59:34.651Z,60.50
2019-04-06T14:02:27.319Z,61.20
2019-04-06T14:05:08.648Z,60.80
2019-04-06T14:07:54.418Z,60.60
2019-04-06T14:10:33.171Z,60.40
2019-04-06T14:13:09.423Z,60.20
2019-04-06T14:15:47.745Z,59.90
2019-04-06T14:18:23.499Z,59.90
2019-04-06T14:21:08.084Z,59.70
2019-04-06T14:24:01.687Z,59.50
2019-04-06T14:26:52.574Z,59.60
2019-04-06T14:29:46.214Z,59.60
2019-04-06T14:32:38.178Z,59.90
2019-04-06T14:35:28.549Z,60.00
2019-04-06T14:38:19.384Z,59.70
2019-04-06T14:41:09.588Z,59.80
2019-04-06T14:44:01.238Z,59.90
2019-04-06T14:46:51.962Z,59.90
2019-04-06T14:49:32.588Z,60.40
2019-04-06T14:52:11.260Z,60.30
2019-04-06T14:55:02.811Z,60.40
2019-04-06T14:57:38.491Z,60.60
2019-04-06T15:00:13.369Z,60.30
2019-04-06T15:02:52.091Z,61.10
2019-04-06T15:05:24.664Z,61.80
2019-04-06T15:08:16.036Z,62.00
2019-04-06T15:11:07.247Z,63.30
2019-04-06T15:13:44.106Z,62.60
2019-04-06T15:16:15.601Z,62.50
2019-04-06T15:19:18.305Z,62.30
2019-04-06T15:22:12.557Z,63.10
2019-04-06T15:25:05.958Z,64.70
2019-04-06T15:27:42.885Z,64.60
2019-04-06T15:30:31.895Z,64.70
2019-04-06T15:33:05.719Z,63.60
2019-04-06T15:35:40.194Z,63.40
2019-04-06T15:38:17.418Z,63.40
2019-04-06T15:40:59.537Z,63.80
2019-04-06T15:43:34.068Z,64.40
2019-04-06T15:46:11.907Z,63.60
2019-04-06T15:48:47.146Z,63.80
2019-04-06T15:51:36.108Z,63.30
2019-04-06T15:54:11.512Z,63.50
2019-04-06T15:56:50.082Z,63.20
2019-04-06T15:59:39.622Z,63.70
2019-04-06T16:02:26.936Z,63.00
2019-04-06T16:05:07.645Z,63.60
2019-04-06T16:07:51.511Z,63.20
2019-04-06T16:10:33.676Z,63.20
2019-04-06T16:13:06.441Z,63.20
2019-04-06T16:15:59.577Z,63.40
2019-04-06T16:18:53.074Z,64.90
2019-04-06T16:21:36.212Z,65.00
2019-04-06T16:24:19.202Z,64.20
2019-04-06T16:26:54.117Z,64.40
2019-04-06T16:29:45.072Z,64.50
2019-04-06T16:32:31.813Z,64.50
2019-04-06T16:35:12.645Z,65.00
2019-04-06T16:37:50.390Z,64.80
2019-04-06T16:40:34.960Z,65.40
2019-04-06T16:43:11.960Z,65.20
2019-04-06T16:46:02.539Z,67.20
2019-04-06T16:48:52.984Z,66.60
2019-04-06T16:51:42.570Z,66.40
2019-04-06T16:54:17.702Z,66.50
2019-04-06T16:56:54.944Z,66.00
2019-04-06T16:59:46.305Z,65.80
2019-04-06T17:02:24.426Z,65.70
2019-04-06T17:04:58.040Z,66.80
2019-04-06T17:07:33.556Z,67.20
2019-04-06T17:10:24.040Z,67.20
2019-04-06T17:13:03.794Z,67.70
2019-04-06T17:15:54.103Z,67.90
2019-04-06T17:18:31.121Z,67.70
2019-04-06T17:21:22.898Z,68.30
2019-04-06T17:24:13.266Z,68.80
2019-04-06T17:27:03.920Z,68.80
2019-04-06T17:29:37.262Z,70.00
2019-04-06T17:32:11.284Z,69.60
2019-04-06T17:35:00.781Z,69.10
2019-04-06T17:37:33.713Z,69.60
2019-04-06T17:40:12.259Z,68.80
2019-04-06T17:42:46.600Z,68.40
2019-04-06T17:45:37.009Z,68.60
2019-04-06T17:48:28.505Z,68.50
2019-04-06T17:51:03.190Z,67.70
2019-04-06T17:53:43.651Z,66.90
2019-04-06T17:56:18.184Z,66.50
2019-04-06T17:58:55.175Z,67.60
2019-04-06T18:01:44.643Z,67.70
2019-04-06T18:04:35.762Z,66.50
2019-04-06T18:07:26.544Z,66.40
2019-04-06T18:10:15.393Z,66.70
2019-04-06T18:12:59.073Z,66.60
2019-04-06T18:15:34.880Z,67.00
2019-04-06T18:18:09.497Z,67.00
2019-04-06T18:20:45.045Z,68.30
2019-04-06T18:23:19.764Z,68.00
2019-04-06T18:25:51.878Z,68.60
2019-04-06T18:28:29.616Z,68.90
2019-04-06T18:31:19.157Z,68.20
2019-04-06T18:33:51.980Z,68.80
2019-04-06T18:36:31.535Z,68.30
2019-04-06T18:39:24.229Z,69.80
2019-04-06T18:41:58.700Z,70.00
2019-04-06T18:44:31.018Z,70.50
2019-04-06T18:47:03.831Z,70.30
2019-04-06T18:49:36.084Z,70.00
2019-04-06T18:52:08.837Z,69.60
2019-04-06T18:54:41.841Z,69.20
2019-04-06T18:57:13.737Z,68.80
2019-04-06T18:59:48.320Z,68.60
2019-04-06T19:02:20.383Z,68.30
2019-04-06T19:04:54.242Z,68.60
2019-04-06T19:07:26.911Z,68.20
2019-04-06T19:10:00.429Z,68.00
2019-04-06T19:12:32.560Z,67.80
2019-04-06T19:15:04.220Z,67.80
2019-04-06T19:17:37.252Z,67.70
2019-04-06T19:20:10.447Z,67.40
2019-04-06T19:22:43.539Z,67.50
2019-04-06T19:25:15.029Z,67.20
2019-04-06T19:27:47.964Z,67.00
2019-04-06T19:30:22.650Z,67.20
2019-04-06T19:32:55.108Z,67.00
2019-04-06T19:35:26.940Z,66.90
2019-04-06T19:37:59.634Z,66.60
2019-04-06T19:40:31.833Z,66.60
2019-04-06T19:43:03.392Z,66.80
2019-04-06T19:45:39.077Z,66.90
2019-04-06T19:48:11.901Z,67.30
2019-04-06T19:50:43.983Z,67.10
2019-04-06T19:53:16.588Z,68.40
2019-04-06T19:55:48.012Z,68.30
2019-04-06T19:58:22.689Z,69.10
2019-04-06T20:00:54.856Z,70.10
2019-04-06T20:03:34.677Z,70.40
2019-04-06T20:06:01.240Z,70.90
2019-04-06T20:08:36.263Z,71.10
2019-04-06T20:11:09.887Z,71.40
2019-04-06T20:13:42.438Z,71.90
2019-04-06T20:16:15.291Z,71.40
2019-04-06T20:18:46.891Z,71.90
2019-04-06T20:21:21.690Z,71.80
2019-04-06T20:23:54.229Z,71.60
2019-04-06T20:26:27.648Z,72.10
2019-04-06T20:28:59.256Z,71.60
2019-04-06T20:31:32.022Z,71.70
2019-04-06T20:34:03.878Z,71.00
2019-04-06T20:36:37.788Z,70.80
2019-04-06T20:39:14.113Z,70.40
2019-04-06T20:41:46.732Z,70.20
2019-04-06T20:44:19.343Z,70.10
2019-04-06T20:46:51.138Z,69.90
2019-04-06T20:49:24.665Z,70.20
2019-04-06T20:51:58.728Z,70.70
2019-04-06T20:54:29.760Z,71.70
2019-04-06T20:57:01.637Z,72.10
2019-04-06T20:59:34.730Z,72.00
2019-04-06T21:02:06.118Z,71.90
2019-04-06T21:04:37.650Z,71.80
2019-04-06T21:07:09.495Z,71.40
2019-04-06T21:09:43.869Z,70.90
2019-04-06T21:12:15.983Z,71.00
2019-04-06T21:14:48.536Z,72.00
2019-04-06T21:17:20.354Z,72.40
2019-04-06T21:19:51.941Z,72.50
2019-04-06T21:22:24.967Z,73.20
2019-04-06T21:24:59.312Z,72.90
2019-04-06T21:27:34.147Z,74.20
2019-04-06T21:30:10.338Z,74.20
2019-04-06T21:32:42.719Z,73.50
2019-04-06T21:35:15.895Z,73.10
2019-04-06T21:37:47.862Z,72.80
2019-04-06T21:40:22.478Z,73.90
2019-04-06T21:42:58.901Z,73.10
2019-04-06T21:45:34.468Z,73.40
2019-04-06T21:48:09.463Z,74.40
2019-04-06T21:50:42.067Z,74.00
2019-04-06T21:53:15.018Z,73.10
2019-04-06T21:55:48.260Z,74.30
2019-04-06T21:58:20.976Z,74.00
2019-04-06T22:00:55.289Z,74.60
2019-04-06T22:03:28.139Z,74.20
2019-04-06T22:05:59.691Z,73.70
2019-04-06T22:08:35.056Z,74.10
2019-04-06T22:11:10.759Z,73.80
2019-04-06T22:13:44.242Z,73.90
2019-04-06T22:16:16.984Z,74.00
2019-04-06T22:18:49.912Z,73.60
2019-04-06T22:21:21.582Z,74.00
2019-04-06T22:23:54.607Z,73.60
2019-04-06T22:26:26.275Z,73.30
2019-04-06T22:28:58.968Z,73.10
2019-04-06T22:31:31.524Z,73.80
2019-04-06T22:34:03.312Z,74.20
2019-04-06T22:36:34.687Z,73.70
2019-04-06T22:39:08.996Z,74.10
2019-04-06T22:41:42.022Z,74.20
2019-04-06T22:44:13.564Z,74.30
2019-04-06T22:46:47.846Z,73.60
2019-04-06T22:49:22.713Z,74.00
2019-04-06T22:51:56.199Z,73.60
2019-04-06T22:54:29.573Z,73.30
2019-04-06T22:57:02.676Z,73.00
2019-04-06T22:59:35.520Z,72.90
2019-04-06T23:02:08.101Z,73.40
2019-04-06T23:04:49.504Z,73.10
2019-04-06T23:07:20.167Z,73.20
2019-04-06T23:09:53.123Z,73.40
2019-04-06T23:12:27.730Z,74.60
2019-04-06T23:15:00.416Z,73.60
2019-04-06T23:17:32.025Z,74.10
2019-04-06T23:20:08.280Z,74.00
2019-04-06T23:22:40.056Z,73.70
2019-04-06T23:25:11.798Z,73.50
2019-04-06T23:27:43.529Z,73.30
2019-04-06T23:30:16.802Z,73.20
2019-04-06T23:32:49.369Z,73.80
2019-04-06T23:35:22.243Z,72.50
2019-04-06T23:37:53.931Z,72.00
2019-04-06T23:40:27.061Z,72.10
2019-04-06T23:43:01.973Z,71.60
2019-04-06T23:45:34.684Z,71.40
2019-04-06T23:48:07.313Z,71.20
2019-04-06T23:50:40.508Z,71.20
2019-04-06T23:53:13.652Z,71.00
2019-04-06T23:55:46.294Z,70.80
2019-04-06T23:58:18.969Z,70.90
